Time;durP1;ratioP1;P1;durP2;ratioP2;P2;SDS_P1;SDS_P2;PMS_P1;PMS_P2;Temp;Humidity;BMP_temperature;BMP_pressure;BME280_temperature;BME280_humidity;BME280_pressure;Samples;Min_cycle;Max_cycle;Signal;HPM_P1;HPM_P2
2021/04/20 04:10:40;;;;;;;0.77;0.77;;;9.10;99.90;;;;;;5766984;23;20226;-74
2021/04/20 04:13:11;;;;;;;0.70;0.70;;;9.10;99.90;;;;;;4909328;29;20266;-74
2021/04/20 04:15:40;;;;;;;0.82;0.82;;;9.00;99.90;;;;;;4908677;29;20230;-74
2021/04/20 04:18:13;;;;;;;0.82;0.82;;;8.90;99.90;;;;;;4915772;29;20211;-75
2021/04/20 04:20:41;;;;;;;0.82;0.82;;;8.90;99.90;;;;;;4911910;29;20266;-74
2021/04/20 04:23:12;;;;;;;0.68;0.68;;;8.80;99.90;;;;;;4897394;29;20742;-74
2021/04/20 04:25:49;;;;;;;0.80;0.80;;;9.00;99.90;;;;;;4896945;29;20207;-74
2021/04/20 04:28:17;;;;;;;0.80;0.80;;;9.20;99.90;;;;;;4897522;29;20639;-75
2021/04/20 04:30:46;;;;;;;0.70;0.70;;;9.20;99.90;;;;;;4898037;29;20234;-75
2021/04/20 04:33:13;;;;;;;0.80;0.80;;;9.20;99.90;;;;;;4900784;29;20259;-74
2021/04/20 04:35:43;;;;;;;0.70;0.70;;;9.50;99.90;;;;;;4900691;29;20732;-74
2021/04/20 04:38:12;;;;;;;0.70;0.70;;;9.60;99.90;;;;;;4902111;29;20211;-74
2021/04/20 04:40:40;;;;;;;0.77;0.77;;;9.50;99.90;;;;;;4903679;29;20231;-74
2021/04/20 04:43:08;;;;;;;0.93;0.93;;;9.40;99.90;;;;;;4898102;29;20208;-74
2021/04/20 04:45:35;;;;;;;0.80;0.80;;;9.20;99.90;;;;;;4908622;29;20190;-75
2021/04/20 04:48:03;;;;;;;0.90;0.90;;;9.30;99.90;;;;;;4922268;29;20241;-75
2021/04/20 04:50:32;;;;;;;0.73;0.73;;;9.30;99.90;;;;;;4917870;29;20820;-75
2021/04/20 04:52:59;;;;;;;0.70;0.70;;;9.00;99.90;;;;;;4918358;29;20210;-75
2021/04/20 04:55:26;;;;;;;0.75;0.75;;;9.00;99.90;;;;;;4918345;29;20883;-74
2021/04/20 04:57:56;;;;;;;0.80;0.80;;;9.00;99.90;;;;;;4918297;29;20211;-74
2021/04/20 05:00:23;;;;;;;0.70;0.70;;;9.10;99.90;;;;;;4919024;29;20214;-75
2021/04/20 05:02:51;;;;;;;0.90;0.90;;;8.90;99.90;;;;;;4919568;29;20227;-75
2021/04/20 05:05:18;;;;;;;0.70;0.70;;;8.90;99.90;;;;;;4918314;29;20609;-76
2021/04/20 05:07:45;;;;;;;0.80;0.80;;;9.00;99.90;;;;;;4912828;29;20668;-76
2021/04/20 05:10:14;;;;;;;0.70;0.70;;;9.00;99.90;;;;;;4906503;29;20613;-74
2021/04/20 05:12:42;;;;;;;0.80;0.80;;;8.90;99.90;;;;;;4899404;29;20676;-74
2021/04/20 05:15:13;;;;;;;0.70;0.70;;;9.00;99.90;;;;;;4899569;29;20275;-73
2021/04/20 05:17:41;;;;;;;0.80;0.80;;;9.20;99.90;;;;;;4899496;29;20280;-74
2021/04/20 05:20:12;;;;;;;0.90;0.90;;;9.20;99.90;;;;;;4898266;29;20214;-74
2021/04/20 05:22:39;;;;;;;0.70;0.70;;;9.10;99.90;;;;;;4899248;29;20211;-74
2021/04/20 05:25:07;;;;;;;1.05;1.05;;;9.20;99.90;;;;;;4899022;29;20251;-74
2021/04/20 05:27:34;;;;;;;0.80;0.80;;;9.20;99.90;;;;;;4899136;29;20211;-74
2021/04/20 05:30:02;;;;;;;0.70;0.70;;;9.30;99.90;;;;;;4899411;29;20283;-74
2021/04/20 05:32:31;;;;;;;0.70;0.70;;;9.30;99.90;;;;;;4898820;29;20287;-74
2021/04/20 05:35:00;;;;;;;0.80;0.80;;;9.50;99.90;;;;;;4899007;29;20312;-74
2021/04/20 05:37:35;;;;;;;0.85;0.85;;;9.40;99.90;;;;;;4899026;29;20243;-74
2021/04/20 05:40:10;;;;;;;0.77;0.77;;;9.40;99.90;;;;;;4898936;29;20869;-74
2021/04/20 05:42:37;;;;;;;0.90;0.90;;;9.50;99.90;;;;;;4897926;29;20206;-74
2021/04/20 05:45:06;;;;;;;0.85;0.85;;;9.60;99.90;;;;;;4898958;29;20211;-74
2021/04/20 05:47:37;;;;;;;0.70;0.70;;;9.70;99.90;;;;;;4899061;29;20211;-74
2021/04/20 05:50:06;;;;;;;0.73;0.73;;;9.70;99.90;;;;;;4898881;29;20694;-74
2021/04/20 05:52:34;;;;;;;0.77;0.77;;;9.80;99.90;;;;;;4898771;29;20227;-74
2021/04/20 05:55:01;;;;;;;0.60;0.60;;;9.70;99.90;;;;;;4898947;29;20606;-75
2021/04/20 05:57:28;;;;;;;0.80;0.80;;;9.90;99.90;;;;;;4898726;29;20215;-74
2021/04/20 05:59:57;;;;;;;0.80;0.80;;;10.10;99.90;;;;;;4898739;29;20263;-75
2021/04/20 06:02:30;;;;;;;0.70;0.70;;;10.10;99.90;;;;;;4898068;29;20728;-74
2021/04/20 06:05:00;;;;;;;0.52;0.52;;;10.10;99.90;;;;;;4898651;29;20222;-75
2021/04/20 06:07:28;;;;;;;0.80;0.80;;;10.10;99.90;;;;;;4898532;29;20211;-74
2021/04/20 06:09:56;;;;;;;0.70;0.70;;;10.10;99.90;;;;;;4899277;29;20203;-74
2021/04/20 06:12:23;;;;;;;0.88;0.88;;;10.40;99.90;;;;;;4900930;29;20728;-74
2021/04/20 06:14:50;;;;;;;0.70;0.70;;;10.40;99.90;;;;;;4899885;29;20203;-74
2021/04/20 06:17:18;;;;;;;0.60;0.60;;;10.60;99.90;;;;;;4898215;29;20570;-75
2021/04/20 06:19:45;;;;;;;0.70;0.70;;;10.60;99.90;;;;;;4898451;29;20235;-75
2021/04/20 06:22:16;;;;;;;1.00;1.00;;;10.80;99.90;;;;;;4898255;29;20223;-76
2021/04/20 06:24:44;;;;;;;0.60;0.60;;;11.00;99.90;;;;;;4898352;29;20215;-76
2021/04/20 06:27:13;;;;;;;0.70;0.70;;;10.80;99.90;;;;;;4898446;29;20736;-75
2021/04/20 06:29:40;;;;;;;0.60;0.60;;;11.40;99.90;;;;;;4898245;29;20204;-75
2021/04/20 06:32:09;;;;;;;0.70;0.70;;;11.00;99.90;;;;;;4897830;29;20708;-75
2021/04/20 06:34:37;;;;;;;0.60;0.60;;;10.90;99.90;;;;;;4897880;29;20210;-75
2021/04/20 06:37:06;;;;;;;0.60;0.60;;;10.90;99.90;;;;;;4897801;29;20234;-75
2021/04/20 06:39:34;;;;;;;0.70;0.70;;;11.10;99.90;;;;;;4897944;29;20211;-75
2021/04/20 06:42:03;;;;;;;0.60;0.60;;;11.50;99.90;;;;;;4897474;29;20231;-75
2021/04/20 06:44:33;;;;;;;0.60;0.60;;;11.10;99.90;;;;;;4897597;29;20740;-75
2021/04/20 06:47:14;;;;;;;0.60;0.60;;;10.90;99.90;;;;;;4897956;29;20204;-76
2021/04/20 06:49:45;;;;;;;0.60;0.60;;;11.00;99.90;;;;;;4897659;29;20692;-76
2021/04/20 06:52:18;;;;;;;0.70;0.70;;;11.10;99.90;;;;;;4897301;29;20231;-75
2021/04/20 06:54:56;;;;;;;0.50;0.50;;;11.00;99.90;;;;;;4897130;29;20207;-75
2021/04/20 06:57:30;;;;;;;0.60;0.60;;;11.00;99.90;;;;;;4897493;29;20207;-76
2021/04/20 07:00:03;;;;;;;0.60;0.60;;;11.40;99.90;;;;;;4897553;29;20241;-76
2021/04/20 07:02:37;;;;;;;0.60;0.60;;;12.20;99.90;;;;;;4897267;29;20501;-75
2021/04/20 07:05:08;;;;;;;0.68;0.68;;;12.30;99.90;;;;;;4897219;29;20281;-75
2021/04/20 07:07:44;;;;;;;0.55;0.55;;;12.80;99.90;;;;;;4897558;29;20211;-75
2021/04/20 07:10:17;;;;;;;0.50;0.50;;;12.20;99.90;;;;;;4897208;29;20207;-75
2021/04/20 07:12:48;;;;;;;0.50;0.50;;;12.50;99.90;;;;;;4897229;29;20271;-75
2021/04/20 07:15:19;;;;;;;0.60;0.60;;;12.00;99.90;;;;;;4897002;29;20282;-75
2021/04/20 07:18:03;;;;;;;0.50;0.50;;;12.50;99.90;;;;;;4897151;29;20207;-75
2021/04/20 07:20:42;;;;;;;0.60;0.60;;;12.30;99.90;;;;;;4897065;29;20250;-75
2021/04/20 07:23:34;;;;;;;0.60;0.60;;;12.30;99.90;;;;;;4896982;29;20215;-75
2021/04/20 07:26:26;;;;;;;0.50;0.50;;;12.50;99.90;;;;;;4897160;29;20207;-75
2021/04/20 07:29:05;;;;;;;0.60;0.60;;;12.80;99.90;;;;;;4896880;29;20824;-75
2021/04/20 07:31:44;;;;;;;0.60;0.60;;;12.30;99.90;;;;;;4896799;29;20719;-75
2021/04/20 07:34:17;;;;;;;0.60;0.60;;;12.10;99.90;;;;;;4896762;29;20743;-75
2021/04/20 07:37:16;;;;;;;0.50;0.50;;;12.40;99.90;;;;;;4896943;29;20227;-75
2021/04/20 07:39:53;;;;;;;0.60;0.60;;;12.30;99.90;;;;;;4890617;29;20211;-75
2021/04/20 07:42:42;;;;;;;0.50;0.50;;;12.60;99.90;;;;;;4896522;29;20279;-75
2021/04/20 07:45:17;;;;;;;0.50;0.50;;;12.80;99.90;;;;;;4896592;29;20207;-75
2021/04/20 07:47:50;;;;;;;0.65;0.65;;;12.80;99.90;;;;;;4896897;29;20262;-75
2021/04/20 07:50:19;;;;;;;0.60;0.60;;;12.20;99.90;;;;;;4897008;29;20211;-75
2021/04/20 07:52:50;;;;;;;0.60;0.60;;;11.90;99.90;;;;;;4896700;29;20751;-75
2021/04/20 07:55:22;;;;;;;0.60;0.60;;;11.80;99.90;;;;;;4896668;29;20628;-75
2021/04/20 07:57:54;;;;;;;0.60;0.60;;;12.00;99.90;;;;;;4897006;29;20207;-75
2021/04/20 08:00:23;;;;;;;0.60;0.60;;;12.00;99.90;;;;;;4896377;29;20211;-75
2021/04/20 08:02:56;;;;;;;0.60;0.60;;;11.90;99.90;;;;;;4896684;29;20215;-75
2021/04/20 08:05:27;;;;;;;0.60;0.60;;;12.40;99.90;;;;;;4895898;29;20737;-74
2021/04/20 08:08:00;;;;;;;0.60;0.60;;;12.70;99.90;;;;;;4896591;29;20211;-75
2021/04/20 08:10:35;;;;;;;0.52;0.52;;;12.80;99.90;;;;;;4896179;29;20215;-75
2021/04/20 08:13:19;;;;;;;0.50;0.50;;;12.90;99.90;;;;;;4896729;29;20214;-74
2021/04/20 08:15:50;;;;;;;0.50;0.50;;;12.70;99.90;;;;;;4896592;29;20227;-74
2021/04/20 08:18:23;;;;;;;0.60;0.60;;;12.40;99.90;;;;;;4896692;29;20212;-74
2021/04/20 08:20:52;;;;;;;0.60;0.60;;;12.30;99.90;;;;;;4896134;29;20234;-74
2021/04/20 08:23:21;;;;;;;0.60;0.60;;;12.40;99.90;;;;;;4896259;29;20243;-74
2021/04/20 08:25:54;;;;;;;0.60;0.60;;;12.30;99.90;;;;;;4895973;29;20206;-74
2021/04/20 08:28:30;;;;;;;0.50;0.50;;;13.20;99.90;;;;;;4896073;29;20290;-74
2021/04/20 08:31:03;;;;;;;0.60;0.60;;;13.10;99.90;;;;;;4896009;29;20227;-75
2021/04/20 08:33:34;;;;;;;0.57;0.57;;;13.10;99.90;;;;;;4896118;29;20297;-74
2021/04/20 08:36:06;;;;;;;0.50;0.50;;;13.00;99.90;;;;;;4895927;29;20227;-75
2021/04/20 08:38:53;;;;;;;0.40;0.40;;;13.00;99.90;;;;;;4896492;29;20219;-74
2021/04/20 08:41:28;;;;;;;0.60;0.60;;;13.40;99.90;;;;;;4896351;29;20258;-74
2021/04/20 08:44:12;;;;;;;0.50;0.50;;;13.60;99.90;;;;;;4897556;29;20215;-74
2021/04/20 08:46:52;;;;;;;0.50;0.50;;;13.50;99.90;;;;;;4897654;29;20717;-74
2021/04/20 08:49:33;;;;;;;0.50;0.50;;;13.30;99.90;;;;;;4896439;29;20740;-74
2021/04/20 08:52:03;;;;;;;0.50;0.50;;;13.50;99.90;;;;;;4896447;29;20231;-74
2021/04/20 08:54:42;;;;;;;0.50;0.50;;;14.20;99.90;;;;;;4896141;29;20203;-74
2021/04/20 08:57:18;;;;;;;0.60;0.60;;;14.70;99.90;;;;;;4895834;29;20772;-74
2021/04/20 09:00:00;;;;;;;0.52;0.52;;;15.20;99.90;;;;;;4895930;29;20665;-74
2021/04/20 09:02:38;;;;;;;0.40;0.40;;;15.30;99.90;;;;;;4895829;29;20284;-74
2021/04/20 09:05:15;;;;;;;0.50;0.50;;;15.40;99.90;;;;;;4895684;29;20262;-74
2021/04/20 09:08:11;;;;;;;0.50;0.50;;;15.50;99.90;;;;;;4895691;29;20207;-74
2021/04/20 09:10:43;;;;;;;0.50;0.50;;;15.60;99.90;;;;;;4895413;29;20239;-74
2021/04/20 09:13:19;;;;;;;0.50;0.50;;;15.80;99.90;;;;;;4895929;29;20669;-74
2021/04/20 09:15:49;;;;;;;0.50;0.50;;;16.10;99.90;;;;;;4895714;29;20271;-73
2021/04/20 09:18:21;;;;;;;0.50;0.50;;;15.40;99.90;;;;;;4899786;29;20211;-76
2021/04/20 09:20:56;;;;;;;0.50;0.50;;;14.90;99.90;;;;;;4899123;29;20239;-74
2021/04/20 09:23:30;;;;;;;0.50;0.50;;;14.90;99.90;;;;;;4899272;29;20218;-74
2021/04/20 09:26:16;;;;;;;0.50;0.50;;;14.80;99.90;;;;;;4899532;29;20255;-74
2021/04/20 09:28:54;;;;;;;0.40;0.40;;;14.70;99.90;;;;;;4899696;29;20397;-74
2021/04/20 09:31:24;;;;;;;0.55;0.55;;;14.80;99.90;;;;;;4899002;29;20776;-74
2021/04/20 09:33:53;;;;;;;0.50;0.50;;;14.90;99.90;;;;;;4899352;29;20616;-73
2021/04/20 09:36:22;;;;;;;0.50;0.50;;;14.90;99.90;;;;;;4898977;29;20283;-75
2021/04/20 09:38:50;;;;;;;0.50;0.50;;;14.50;99.90;;;;;;4899109;29;20207;-75
2021/04/20 09:41:27;;;;;;;0.50;0.50;;;14.60;99.90;;;;;;4898621;29;20235;-75
2021/04/20 09:44:04;;;;;;;0.40;0.40;;;14.90;99.90;;;;;;4899195;29;20211;-73
2021/04/20 09:46:36;;;;;;;0.50;0.50;;;15.00;99.90;;;;;;4898973;29;20207;-74
2021/04/20 09:49:09;;;;;;;0.40;0.40;;;14.90;99.90;;;;;;4898836;29;20215;-74
2021/04/20 09:51:45;;;;;;;0.40;0.40;;;15.10;99.90;;;;;;4898300;29;20263;-73
2021/04/20 09:54:17;;;;;;;0.45;0.45;;;15.40;99.90;;;;;;4898945;29;20623;-73
2021/04/20 09:56:49;;;;;;;0.50;0.50;;;15.80;99.90;;;;;;4898538;29;20227;-73
2021/04/20 09:59:40;;;;;;;0.50;0.50;;;16.20;99.90;;;;;;4898716;29;20236;-73
2021/04/20 10:02:33;;;;;;;0.40;0.40;;;16.40;99.90;;;;;;4898305;29;20239;-74
2021/04/20 10:05:09;;;;;;;0.43;0.43;;;16.70;99.90;;;;;;4898667;29;20294;-73
2021/04/20 10:08:05;;;;;;;0.50;0.50;;;16.60;99.90;;;;;;4898667;29;20214;-73
2021/04/20 10:10:45;;;;;;;0.40;0.40;;;16.60;99.90;;;;;;4897989;29;20314;-74
2021/04/20 10:13:56;;;;;;;0.40;0.40;;;17.00;99.90;;;;;;4898643;29;20215;-74
2021/04/20 10:16:27;;;;;;;0.30;0.30;;;17.10;99.90;;;;;;4898243;29;20712;-75
2021/04/20 10:19:07;;;;;;;0.38;0.38;;;17.10;99.90;;;;;;4898785;29;20293;-74
2021/04/20 10:21:44;;;;;;;0.40;0.40;;;16.80;99.90;;;;;;4898149;29;20728;-74
2021/04/20 10:24:17;;;;;;;0.40;0.40;;;16.80;99.90;;;;;;4899013;29;20214;-73
2021/04/20 10:26:47;;;;;;;0.50;0.50;;;16.90;99.90;;;;;;4898312;29;20255;-73
2021/04/20 10:29:20;;;;;;;0.40;0.40;;;17.00;99.90;;;;;;4897737;29;20708;-73
2021/04/20 10:31:56;;;;;;;0.40;0.40;;;16.90;99.90;;;;;;4897971;29;20231;-73
2021/04/20 10:34:24;;;;;;;0.50;0.50;;;16.70;99.90;;;;;;4898302;29;20218;-73
2021/04/20 10:36:53;;;;;;;0.40;0.40;;;16.40;99.90;;;;;;4898289;29;20716;-73
2021/04/20 10:39:26;;;;;;;0.50;0.50;;;16.40;99.90;;;;;;4897999;29;20203;-73
2021/04/20 10:41:54;;;;;;;0.50;0.50;;;16.40;99.90;;;;;;4897759;29;20231;-75
2021/04/20 10:44:24;;;;;;;0.50;0.50;;;16.30;99.90;;;;;;4897946;29;20207;-73
2021/04/20 10:46:54;;;;;;;0.40;0.40;;;16.40;99.90;;;;;;4897695;29;20267;-73
2021/04/20 10:49:24;;;;;;;0.40;0.40;;;16.40;99.90;;;;;;4897940;29;20218;-73
2021/04/20 10:51:57;;;;;;;0.50;0.50;;;16.10;99.90;;;;;;4897518;29;20230;-73
2021/04/20 10:54:29;;;;;;;0.40;0.40;;;15.90;99.90;;;;;;4898319;29;20208;-73
2021/04/20 10:56:57;;;;;;;0.40;0.40;;;16.00;99.90;;;;;;4897832;29;20227;-74
2021/04/20 10:59:27;;;;;;;0.40;0.40;;;16.30;99.90;;;;;;4897846;29;20243;-73
2021/04/20 11:01:58;;;;;;;0.40;0.40;;;16.40;99.90;;;;;;4897203;29;20286;-74
2021/04/20 11:04:29;;;;;;;0.40;0.40;;;16.60;99.90;;;;;;4897457;29;20271;-74
2021/04/20 11:07:21;;;;;;;0.40;0.40;;;16.70;99.90;;;;;;4897451;29;20223;-74
2021/04/20 11:09:55;;;;;;;0.35;0.35;;;17.00;99.90;;;;;;4897366;29;20211;-74
2021/04/20 11:12:23;;;;;;;0.30;0.30;;;17.30;99.90;;;;;;4897032;29;20732;-74
2021/04/20 11:14:52;;;;;;;0.40;0.40;;;17.30;99.90;;;;;;4897232;29;20203;-74
2021/04/20 11:17:27;;;;;;;0.40;0.40;;;17.10;99.90;;;;;;4897285;29;20231;-74
2021/04/20 11:20:02;;;;;;;0.50;0.50;;;17.20;99.90;;;;;;4897187;29;20238;-74
2021/04/20 11:22:35;;;;;;;0.40;0.40;;;17.00;99.90;;;;;;4896851;29;20294;-74
2021/04/20 11:25:09;;;;;;;0.50;0.50;;;17.20;99.90;;;;;;4897117;29;20263;-74
2021/04/20 11:27:37;;;;;;;0.40;0.40;;;17.20;99.90;;;;;;4897066;29;20187;-74
2021/04/20 11:30:12;;;;;;;0.40;0.40;;;17.20;99.90;;;;;;4897021;29;20659;-74
2021/04/20 11:32:48;;;;;;;0.40;0.40;;;17.30;99.90;;;;;;4896858;29;20399;-74
2021/04/20 11:35:20;;;;;;;0.40;0.40;;;17.40;99.90;;;;;;4896925;29;20353;-74
2021/04/20 11:37:49;;;;;;;0.40;0.40;;;17.00;99.90;;;;;;4896680;29;20768;-74
2021/04/20 11:40:26;;;;;;;0.50;0.50;;;16.60;99.90;;;;;;4896064;29;20310;-74
2021/04/20 11:42:54;;;;;;;0.40;0.40;;;16.80;99.90;;;;;;4896789;29;20267;-74
2021/04/20 11:45:23;;;;;;;0.40;0.40;;;17.00;99.90;;;;;;4896688;29;20207;-74
2021/04/20 11:47:57;;;;;;;0.40;0.40;;;17.10;99.90;;;;;;4896613;29;20210;-74
2021/04/20 11:50:29;;;;;;;0.30;0.30;;;16.90;99.90;;;;;;4896376;29;20215;-74
2021/04/20 11:53:00;;;;;;;0.30;0.30;;;16.90;99.90;;;;;;4897024;29;20307;-73
2021/04/20 11:55:35;;;;;;;0.35;0.35;;;16.70;99.90;;;;;;4897244;29;20218;-73
2021/04/20 11:58:08;;;;;;;0.50;0.50;;;16.80;99.90;;;;;;4896892;29;20238;-73
2021/04/20 12:00:36;;;;;;;0.40;0.40;;;16.70;99.90;;;;;;4896725;29;20231;-73
2021/04/20 12:03:09;;;;;;;0.40;0.40;;;16.80;99.90;;;;;;4896669;29;21216;-73
2021/04/20 12:05:39;;;;;;;0.38;0.38;;;16.80;99.90;;;;;;4896731;29;20211;-73
2021/04/20 12:08:09;;;;;;;0.40;0.40;;;16.90;99.90;;;;;;4896424;29;20284;-73
2021/04/20 12:10:37;;;;;;;0.40;0.40;;;16.90;99.50;;;;;;4896216;29;20243;-73
2021/04/20 12:13:05;;;;;;;0.40;0.40;;;17.00;99.60;;;;;;4896265;29;20259;-73
2021/04/20 12:15:32;;;;;;;0.30;0.30;;;17.10;99.50;;;;;;4896544;29;20215;-75
2021/04/20 12:18:06;;;;;;;0.30;0.30;;;17.20;99.50;;;;;;4896389;29;20582;-73
2021/04/20 12:20:33;;;;;;;0.40;0.40;;;17.00;99.40;;;;;;4896125;29;20234;-74
2021/04/20 12:23:01;;;;;;;0.40;0.40;;;16.80;99.10;;;;;;4895990;29;20579;-74
2021/04/20 12:25:30;;;;;;;0.40;0.40;;;16.70;99.60;;;;;;4896384;29;20259;-73
2021/04/20 12:28:02;;;;;;;0.40;0.40;;;16.80;99.90;;;;;;4896121;29;20214;-73
2021/04/20 12:30:29;;;;;;;0.30;0.30;;;16.60;99.90;;;;;;4895966;29;20214;-74
2021/04/20 12:32:58;;;;;;;0.30;0.30;;;16.60;99.60;;;;;;4896045;29;20259;-73
2021/04/20 12:35:27;;;;;;;0.40;0.40;;;16.60;99.80;;;;;;4896232;29;20235;-73
2021/04/20 12:37:57;;;;;;;0.35;0.35;;;16.50;99.40;;;;;;4895938;29;20231;-74
2021/04/20 12:40:25;;;;;;;0.40;0.40;;;16.00;99.90;;;;;;4895717;29;20617;-74
2021/04/20 12:42:57;;;;;;;0.50;0.50;;;16.10;99.90;;;;;;4896279;29;20208;-73
2021/04/20 12:45:28;;;;;;;0.50;0.50;;;16.10;99.80;;;;;;4896509;29;20648;-74
2021/04/20 12:47:57;;;;;;;0.40;0.40;;;16.30;99.90;;;;;;4896150;29;20204;-74
2021/04/20 12:50:30;;;;;;;0.50;0.50;;;16.30;99.90;;;;;;4895167;29;20312;-73
2021/04/20 12:53:03;;;;;;;0.50;0.50;;;16.40;99.40;;;;;;4899191;29;20215;-74
2021/04/20 12:55:34;;;;;;;0.40;0.40;;;16.30;99.40;;;;;;4900253;29;20203;-74
2021/04/20 12:58:07;;;;;;;0.50;0.50;;;16.40;98.30;;;;;;4899865;29;20291;-74
2021/04/20 13:00:35;;;;;;;0.40;0.40;;;16.60;98.40;;;;;;4899573;29;20599;-74
2021/04/20 13:03:04;;;;;;;0.40;0.40;;;16.80;98.10;;;;;;4899707;29;20218;-74
2021/04/20 13:05:34;;;;;;;0.30;0.30;;;16.80;98.00;;;;;;4899670;29;20214;-74
2021/04/20 13:08:03;;;;;;;0.40;0.40;;;17.00;98.40;;;;;;4899840;29;20227;-74
2021/04/20 13:10:32;;;;;;;0.40;0.40;;;17.10;99.90;;;;;;4899220;29;20270;-74
2021/04/20 13:13:00;;;;;;;0.40;0.40;;;17.20;97.00;;;;;;4899290;29;20215;-74
2021/04/20 13:15:29;;;;;;;0.30;0.30;;;17.10;97.40;;;;;;4899505;29;20211;-74
2021/04/20 13:17:59;;;;;;;0.30;0.30;;;17.30;96.30;;;;;;4899328;29;20646;-74
2021/04/20 13:20:29;;;;;;;0.38;0.38;;;17.80;99.90;;;;;;4899397;29;20259;-74
2021/04/20 13:22:56;;;;;;;0.30;0.30;;;17.70;99.90;;;;;;4899514;29;20207;-74
2021/04/20 13:25:23;;;;;;;0.30;0.30;;;17.60;94.60;;;;;;4899399;29;20503;-74
2021/04/20 13:27:54;;;;;;;0.30;0.30;;;17.40;94.60;;;;;;4898654;29;20199;-74
2021/04/20 13:30:23;;;;;;;0.40;0.40;;;17.60;99.90;;;;;;4898507;29;20210;-74
2021/04/20 13:32:54;;;;;;;0.30;0.30;;;17.80;94.30;;;;;;4899062;29;20215;-75
2021/04/20 13:35:22;;;;;;;0.38;0.38;;;18.00;94.30;;;;;;4899221;29;20290;-75
2021/04/20 13:37:53;;;;;;;0.40;0.40;;;18.10;92.10;;;;;;4899609;29;20306;-75
2021/04/20 13:40:21;;;;;;;0.40;0.40;;;17.70;92.90;;;;;;4898923;29;20280;-74
2021/04/20 13:42:56;;;;;;;0.40;0.40;;;17.70;93.10;;;;;;4898691;29;20207;-75
2021/04/20 13:45:27;;;;;;;0.40;0.40;;;17.80;93.10;;;;;;4899072;29;20203;-76
2021/04/20 13:47:54;;;;;;;0.50;0.50;;;18.00;93.40;;;;;;4899519;29;20203;-75
2021/04/20 13:50:29;;;;;;;0.40;0.40;;;18.00;92.80;;;;;;4899039;29;20210;-75
2021/04/20 13:53:00;;;;;;;0.35;0.35;;;18.50;93.20;;;;;;4898716;29;20677;-75
2021/04/20 13:55:32;;;;;;;0.40;0.40;;;19.00;91.60;;;;;;4895095;29;20518;-74
2021/04/20 13:58:07;;;;;;;0.40;0.40;;;19.00;90.80;;;;;;4885514;29;20708;-74
2021/04/20 14:00:37;;;;;;;0.40;0.40;;;19.10;92.20;;;;;;4889822;29;20234;-74
2021/04/20 14:03:05;;;;;;;0.40;0.40;;;19.20;87.20;;;;;;4887554;29;20203;-73
2021/04/20 14:05:36;;;;;;;0.40;0.40;;;19.10;92.40;;;;;;4887590;29;20206;-76
2021/04/20 14:08:06;;;;;;;0.30;0.30;;;19.40;92.90;;;;;;4879988;29;20207;-73
2021/04/20 14:10:36;;;;;;;0.30;0.30;;;19.60;89.10;;;;;;4889281;29;20291;-76
2021/04/20 14:13:10;;;;;;;0.30;0.30;;;20.00;89.80;;;;;;4898327;29;20214;-75
2021/04/20 14:15:41;;;;;;;0.30;0.30;;;20.00;90.70;;;;;;4898144;29;20199;-74
2021/04/20 14:18:12;;;;;;;0.40;0.40;;;20.00;84.40;;;;;;4897748;29;20211;-75
2021/04/20 14:20:42;;;;;;;0.30;0.30;;;19.80;83.30;;;;;;4879724;29;20374;-74
2021/04/20 14:23:11;;;;;;;0.30;0.30;;;18.80;86.30;;;;;;4885613;29;20287;-74
2021/04/20 14:25:40;;;;;;;0.30;0.30;;;19.40;87.80;;;;;;4884600;29;20204;-76
2021/04/20 14:28:09;;;;;;;0.30;0.30;;;19.50;83.70;;;;;;4886777;29;20224;-74
2021/04/20 14:30:37;;;;;;;0.20;0.20;;;20.00;83.30;;;;;;4888536;29;20271;-74
2021/04/20 14:33:06;;;;;;;0.25;0.25;;;20.40;81.00;;;;;;4887510;29;20224;-75
2021/04/20 14:35:35;;;;;;;0.20;0.20;;;20.60;77.00;;;;;;4888689;29;20243;-74
2021/04/20 14:38:04;;;;;;;0.38;0.38;;;20.80;78.90;;;;;;4895747;29;20231;-74
2021/04/20 14:40:33;;;;;;;0.20;0.20;;;21.80;83.70;;;;;;4888653;29;20211;-74
2021/04/20 14:43:07;;;;;;;0.30;0.30;;;21.80;67.50;;;;;;4887763;29;20686;-74
2021/04/20 14:45:38;;;;;;;0.20;0.20;;;22.30;63.50;;;;;;4879579;29;20210;-75
2021/04/20 14:48:10;;;;;;;0.20;0.20;;;22.30;61.00;;;;;;4879335;29;20212;-76
2021/04/20 14:50:41;;;;;;;0.20;0.20;;;22.20;62.40;;;;;;4884251;29;20279;-75
2021/04/20 14:53:13;;;;;;;0.20;0.20;;;21.90;61.90;;;;;;4895111;29;20604;-76
2021/04/20 14:55:44;;;;;;;0.30;0.30;;;21.80;63.10;;;;;;4895794;29;20255;-75
2021/04/20 14:58:17;;;;;;;0.20;0.20;;;21.10;64.00;;;;;;4879280;29;20243;-76
2021/04/20 15:00:46;;;;;;;0.30;0.30;;;20.30;65.40;;;;;;4883401;29;20639;-75
2021/04/20 15:03:13;;;;;;;0.30;0.30;;;19.70;66.20;;;;;;4881214;29;20208;-75
2021/04/20 15:05:40;;;;;;;0.30;0.30;;;19.40;66.20;;;;;;4893663;29;20693;-76
2021/04/20 15:08:12;;;;;;;0.30;0.30;;;19.00;67.40;;;;;;4898099;29;20199;-77
2021/04/20 15:10:45;;;;;;;0.30;0.30;;;19.00;69.20;;;;;;4889241;29;20227;-77
2021/04/20 15:13:19;;;;;;;0.30;0.30;;;18.70;71.30;;;;;;4878765;29;20219;-78
2021/04/20 15:15:50;;;;;;;0.40;0.40;;;18.60;71.40;;;;;;4878362;29;20729;-78
2021/04/20 15:18:26;;;;;;;0.30;0.30;;;18.50;73.10;;;;;;4878603;29;20284;-78
2021/04/20 15:20:57;;;;;;;0.30;0.30;;;19.00;72.90;;;;;;4878251;29;20235;-78
2021/04/20 15:23:32;;;;;;;0.30;0.30;;;18.50;72.20;;;;;;4878607;29;20307;-78
2021/04/20 15:26:02;;;;;;;0.20;0.20;;;19.70;70.50;;;;;;4878701;29;20267;-76
2021/04/20 15:28:30;;;;;;;0.20;0.20;;;20.30;68.10;;;;;;4882839;29;20199;-75
2021/04/20 15:31:01;;;;;;;0.20;0.20;;;21.10;66.60;;;;;;4896242;29;20223;-77
2021/04/20 15:33:29;;;;;;;0.20;0.20;;;21.80;64.30;;;;;;4893860;29;20369;-78
2021/04/20 15:36:04;;;;;;;0.30;0.30;;;21.20;62.50;;;;;;4882390;29;20219;-77
2021/04/20 15:38:34;;;;;;;0.30;0.30;;;19.40;67.30;;;;;;4887733;29;20224;-76
2021/04/20 15:41:02;;;;;;;0.30;0.30;;;18.30;71.70;;;;;;4885261;29;20219;-77
2021/04/20 15:43:31;;;;;;;0.30;0.30;;;18.30;74.00;;;;;;4897543;29;20263;-76
2021/04/20 15:46:02;;;;;;;0.30;0.30;;;18.30;74.70;;;;;;4894175;29;20259;-75
2021/04/20 15:48:32;;;;;;;0.40;0.40;;;18.70;75.60;;;;;;4888388;29;20657;-75
2021/04/20 15:51:02;;;;;;;0.40;0.40;;;18.70;74.10;;;;;;4889298;29;20310;-76
2021/04/20 15:53:33;;;;;;;0.30;0.30;;;18.70;76.10;;;;;;4888780;29;20695;-76
2021/04/20 15:56:04;;;;;;;0.40;0.40;;;18.80;77.20;;;;;;4897036;29;20212;-76
2021/04/20 15:58:36;;;;;;;0.30;0.30;;;18.80;81.60;;;;;;4897624;29;20294;-77
2021/04/20 16:01:05;;;;;;;0.30;0.30;;;18.50;82.00;;;;;;4896923;29;20273;-77
2021/04/20 16:03:35;;;;;;;0.38;0.38;;;18.60;83.90;;;;;;4899150;29;20209;-76
2021/04/20 16:06:05;;;;;;;0.30;0.30;;;18.30;87.50;;;;;;4898648;29;20267;-76
2021/04/20 16:08:35;;;;;;;0.40;0.40;;;17.50;89.10;;;;;;4900263;29;20199;-75
2021/04/20 16:11:05;;;;;;;0.40;0.40;;;16.80;93.30;;;;;;4896553;29;20608;-75
2021/04/20 16:13:38;;;;;;;0.32;0.32;;;16.80;93.70;;;;;;4885461;29;20228;-76
2021/04/20 16:16:11;;;;;;;0.40;0.40;;;16.60;93.30;;;;;;4888168;29;20207;-75
2021/04/20 16:18:44;;;;;;;0.50;0.50;;;16.60;94.40;;;;;;4877938;29;20254;-76
2021/04/20 16:21:13;;;;;;;0.40;0.40;;;16.50;94.10;;;;;;4882250;29;20693;-75
2021/04/20 16:23:42;;;;;;;0.40;0.40;;;16.70;91.90;;;;;;4894891;29;20614;-76
2021/04/20 16:26:14;;;;;;;0.40;0.40;;;16.90;92.10;;;;;;4886495;29;20212;-75
2021/04/20 16:28:44;;;;;;;0.45;0.45;;;16.90;92.60;;;;;;4893825;29;20717;-76
2021/04/20 16:31:15;;;;;;;0.40;0.40;;;16.80;92.50;;;;;;4896105;29;20255;-76
2021/04/20 16:33:42;;;;;;;0.40;0.40;;;16.90;92.90;;;;;;4896194;29;20557;-75
2021/04/20 16:36:14;;;;;;;0.40;0.40;;;16.90;91.30;;;;;;4896114;29;20212;-77
2021/04/20 16:38:57;;;;;;;0.40;0.40;;;16.40;92.10;;;;;;4896100;29;20231;-77
2021/04/20 16:41:44;;;;;;;0.40;0.40;;;16.30;92.00;;;;;;4896040;29;20231;-75
2021/04/20 16:44:32;;;;;;;0.40;0.40;;;16.00;91.10;;;;;;4895794;29;20399;-75
2021/04/20 16:47:28;;;;;;;0.50;0.50;;;16.00;91.60;;;;;;4896265;29;20203;-75
2021/04/20 16:50:23;;;;;;;0.40;0.40;;;16.00;92.10;;;;;;4892534;29;20302;-74
2021/04/20 16:53:04;;;;;;;0.50;0.50;;;16.10;92.00;;;;;;4866958;29;20638;-75
2021/04/20 16:55:38;;;;;;;0.50;0.50;;;16.20;92.40;;;;;;4892582;29;20561;-76
2021/04/20 16:58:18;;;;;;;0.40;0.40;;;16.20;93.10;;;;;;4885877;29;20278;-75
2021/04/20 17:00:49;;;;;;;0.50;0.50;;;16.00;93.00;;;;;;4886841;29;20227;-74
2021/04/20 17:03:38;;;;;;;0.40;0.40;;;16.30;92.80;;;;;;4884615;29;20725;-75
2021/04/20 17:06:26;;;;;;;0.47;0.47;;;16.40;92.30;;;;;;4890546;29;20215;-74
2021/04/20 17:09:01;;;;;;;0.50;0.50;;;16.70;91.80;;;;;;4896186;29;20259;-75
2021/04/20 17:11:41;;;;;;;0.50;0.50;;;16.50;91.90;;;;;;4895322;29;20233;-74
2021/04/20 17:14:26;;;;;;;0.40;0.40;;;16.70;93.00;;;;;;4884248;29;20237;-74
2021/04/20 17:17:05;;;;;;;0.50;0.50;;;16.40;94.30;;;;;;4893145;29;20231;-76
2021/04/20 17:19:52;;;;;;;0.50;0.50;;;16.60;95.20;;;;;;4896118;29;20207;-74
2021/04/20 17:22:45;;;;;;;0.50;0.50;;;16.40;96.00;;;;;;4895538;29;20318;-75
2021/04/20 17:25:25;;;;;;;0.60;0.60;;;16.20;98.30;;;;;;4895877;29;20219;-74